Time;durP1;ratioP1;P1;durP2;ratioP2;P2;SDS_P1;SDS_P2;PMS_P1;PMS_P2;Temp;Humidity;BMP_temperature;BMP_pressure;BME280_temperature;BME280_humidity;BME280_pressure;Samples;Min_cycle;Max_cycle;Signal;HPM_P1;HPM_P2
2022/03/23 00:00:00;;;;;;;8.20;7.50;;;;;;;;;;5080296;28;20248;-68
2022/03/23 00:02:47;;;;;;;8.67;7.97;;;;;;;;;;5069087;28;20254;-67
2022/03/23 00:05:35;;;;;;;8.53;7.83;;;;;;;;;;5077762;28;20271;-68
2022/03/23 00:08:22;;;;;;;8.30;7.60;;;;;;;;;;5083532;28;20299;-68
2022/03/23 00:11:09;;;;;;;8.30;7.60;;;;;;;;;;5065973;28;20297;-68
2022/03/23 00:13:56;;;;;;;8.27;7.57;;;;;;;;;;5077129;28;20232;-67
2022/03/23 00:16:43;;;;;;;8.97;8.07;;;;;;;;;;5064860;28;20263;-68
2022/03/23 00:19:30;;;;;;;8.20;7.60;;;;;;;;;;5068371;28;20706;-69
2022/03/23 00:22:18;;;;;;;7.77;7.17;;;;;;;;;;5072675;28;20198;-68
2022/03/23 00:25:07;;;;;;;8.37;7.67;;;;;;;;;;5070833;28;20262;-68
2022/03/23 00:27:54;;;;;;;8.33;7.70;;;;;;;;;;5072606;28;20244;-68
2022/03/23 00:30:41;;;;;;;8.47;7.73;;;;;;;;;;5074345;28;20207;-69
2022/03/23 00:33:28;;;;;;;8.97;8.17;;;;;;;;;;5079621;28;20786;-69
2022/03/23 00:36:15;;;;;;;8.50;7.83;;;;;;;;;;5075978;28;20306;-68
2022/03/23 00:39:03;;;;;;;8.83;8.03;;;;;;;;;;5076908;28;20211;-68
2022/03/23 00:41:52;;;;;;;8.60;7.83;;;;;;;;;;5073366;28;20215;-69
2022/03/23 00:44:39;;;;;;;8.57;7.87;;;;;;;;;;5078233;28;20250;-68
2022/03/23 00:47:26;;;;;;;8.47;7.73;;;;;;;;;;5079239;28;20244;-68
2022/03/23 00:50:14;;;;;;;9.13;8.43;;;;;;;;;;5076495;28;20233;-68
2022/03/23 00:53:02;;;;;;;9.23;8.33;;;;;;;;;;5069960;28;20716;-68
2022/03/23 00:55:50;;;;;;;8.67;7.97;;;;;;;;;;5072964;28;20294;-68
2022/03/23 00:58:37;;;;;;;8.40;7.70;;;;;;;;;;5073480;28;20243;-68
2022/03/23 01:01:24;;;;;;;9.17;8.37;;;;;;;;;;5079009;28;20340;-69
2022/03/23 01:04:11;;;;;;;8.70;7.90;;;;;;;;;;5076927;28;20208;-68
2022/03/23 01:06:59;;;;;;;9.20;8.40;;;;;;;;;;5074926;28;20209;-68
2022/03/23 01:09:45;;;;;;;8.53;7.77;;;;;;;;;;5078659;28;20205;-68
2022/03/23 01:12:34;;;;;;;8.87;8.13;;;;;;;;;;5075369;28;20242;-68
2022/03/23 01:15:22;;;;;;;8.13;7.50;;;;;;;;;;5072791;28;20220;-68
2022/03/23 01:18:09;;;;;;;8.67;7.97;;;;;;;;;;5077684;28;20341;-68
2022/03/23 01:20:55;;;;;;;9.00;8.23;;;;;;;;;;5074643;28;20301;-68
2022/03/23 01:23:43;;;;;;;8.63;7.93;;;;;;;;;;5078231;28;20215;-68
2022/03/23 01:26:29;;;;;;;8.80;8.00;;;;;;;;;;5071693;28;20668;-68
2022/03/23 01:29:18;;;;;;;9.87;8.13;;;;;;;;;;5081617;28;20216;-68
2022/03/23 01:32:06;;;;;;;8.57;7.77;;;;;;;;;;5080648;28;20245;-68
2022/03/23 01:34:53;;;;;;;8.33;7.73;;;;;;;;;;5072170;28;20208;-68
2022/03/23 01:37:40;;;;;;;8.67;7.97;;;;;;;;;;5077120;28;20235;-68
2022/03/23 01:40:27;;;;;;;8.67;7.97;;;;;;;;;;5080889;28;20291;-68
2022/03/23 01:43:14;;;;;;;8.33;7.57;;;;;;;;;;5075550;28;20244;-68
2022/03/23 01:46:03;;;;;;;7.80;7.17;;;;;;;;;;5074925;28;20243;-68
2022/03/23 01:48:50;;;;;;;8.10;7.50;;;;;;;;;;5075644;28;20292;-69
2022/03/23 01:51:37;;;;;;;7.77;7.17;;;;;;;;;;5071756;28;20266;-69
2022/03/23 01:54:24;;;;;;;7.83;7.20;;;;;;;;;;5074500;28;20662;-68
2022/03/23 01:57:14;;;;;;;8.00;7.40;;;;;;;;;;5071951;28;20239;-69
2022/03/23 02:00:01;;;;;;;7.57;6.97;;;;;;;;;;5074061;28;20293;-69
2022/03/23 02:02:49;;;;;;;8.00;7.30;;;;;;;;;;5069620;28;20338;-68
2022/03/23 02:05:36;;;;;;;8.23;7.63;;;;;;;;;;5076753;28;20219;-69
2022/03/23 02:08:23;;;;;;;7.80;7.20;;;;;;;;;;5078213;28;20287;-68
2022/03/23 02:11:10;;;;;;;7.80;7.10;;;;;;;;;;5085061;28;20715;-68
2022/03/23 02:13:57;;;;;;;7.50;6.90;;;;;;;;;;5070649;28;20238;-68
2022/03/23 02:16:45;;;;;;;7.67;7.07;;;;;;;;;;5077606;28;20733;-68
2022/03/23 02:19:35;;;;;;;8.17;7.47;;;;;;;;;;5075184;28;20243;-68
2022/03/23 02:22:23;;;;;;;8.33;7.63;;;;;;;;;;5070769;28;20208;-68
2022/03/23 02:25:10;;;;;;;7.70;7.10;;;;;;;;;;5081443;28;20213;-69
2022/03/23 02:27:58;;;;;;;8.10;7.37;;;;;;;;;;5077008;28;20687;-68
2022/03/23 02:30:45;;;;;;;7.83;7.23;;;;;;;;;;5081278;28;20203;-68
2022/03/23 02:33:32;;;;;;;8.30;7.53;;;;;;;;;;5071820;28;20211;-68
2022/03/23 02:36:19;;;;;;;7.53;7.03;;;;;;;;;;5081561;28;20209;-67
2022/03/23 02:39:08;;;;;;;8.13;7.53;;;;;;;;;;5068968;28;20217;-68
2022/03/23 02:41:56;;;;;;;8.20;7.50;;;;;;;;;;5082737;28;20201;-68
2022/03/23 02:44:43;;;;;;;7.87;7.27;;;;;;;;;;5081360;28;20244;-68
2022/03/23 02:47:30;;;;;;;7.90;7.30;;;;;;;;;;5077701;28;20825;-68
2022/03/23 02:50:18;;;;;;;7.90;7.30;;;;;;;;;;5080367;28;20273;-68
2022/03/23 03:02:29;;;;;;;8.23;7.50;;;;;;;;;;5083808;28;20203;-68
2022/03/23 03:05:16;;;;;;;8.93;8.13;;;;;;;;;;5068439;28;20216;-68
2022/03/23 03:11:08;;;;;;;10.27;9.27;;;;;;;;;;5078165;28;20207;-68
2022/03/23 03:13:56;;;;;;;8.80;8.00;;;;;;;;;;5071063;28;20204;-68
2022/03/23 03:16:44;;;;;;;9.57;8.60;;;;;;;;;;5076426;28;20293;-68
2022/03/23 03:19:31;;;;;;;9.47;8.63;;;;;;;;;;5077449;28;20679;-69
2022/03/23 03:22:18;;;;;;;9.63;8.73;;;;;;;;;;5084406;28;20246;-68
2022/03/23 03:25:07;;;;;;;10.50;9.40;;;;;;;;;;5073097;28;20703;-68
2022/03/23 03:27:54;;;;;;;9.90;9.00;;;;;;;;;;5072196;28;20274;-69
2022/03/23 03:30:43;;;;;;;9.47;8.53;;;;;;;;;;5077933;28;20558;-68
2022/03/23 03:33:30;;;;;;;10.33;9.40;;;;;;;;;;5072846;28;20244;-69
2022/03/23 03:36:17;;;;;;;10.80;9.40;;;;;;;;;;5077888;28;20281;-68
2022/03/23 03:39:04;;;;;;;10.20;9.20;;;;;;;;;;5073416;28;20232;-68
2022/03/23 03:41:51;;;;;;;10.43;9.43;;;;;;;;;;5077552;28;20244;-68
2022/03/23 03:44:38;;;;;;;10.10;9.20;;;;;;;;;;5075590;28;20246;-68
2022/03/23 03:47:26;;;;;;;10.40;9.40;;;;;;;;;;5062317;28;20659;-68
2022/03/23 03:50:13;;;;;;;9.63;8.83;;;;;;;;;;5075763;28;20348;-68
2022/03/23 03:53:00;;;;;;;10.30;9.30;;;;;;;;;;5074833;28;20770;-68
2022/03/23 03:55:47;;;;;;;10.17;9.23;;;;;;;;;;5076466;28;20688;-68
2022/03/23 03:58:34;;;;;;;10.00;9.10;;;;;;;;;;5069229;28;20261;-68
2022/03/23 04:01:21;;;;;;;10.40;9.30;;;;;;;;;;5078542;28;20224;-68
2022/03/23 04:04:09;;;;;;;10.27;9.37;;;;;;;;;;5077402;28;20208;-68
2022/03/23 04:06:56;;;;;;;9.67;8.77;;;;;;;;;;5078283;28;20679;-68
2022/03/23 04:09:43;;;;;;;8.93;8.17;;;;;;;;;;5081272;28;20703;-68
2022/03/23 04:12:30;;;;;;;9.43;8.60;;;;;;;;;;5084300;28;20549;-68
2022/03/23 04:15:19;;;;;;;9.27;8.43;;;;;;;;;;5072000;28;20564;-68
2022/03/23 04:18:07;;;;;;;8.97;8.17;;;;;;;;;;5069458;28;20690;-68
2022/03/23 04:20:56;;;;;;;8.43;7.73;;;;;;;;;;5079129;28;20701;-68
2022/03/23 04:23:43;;;;;;;9.13;8.40;;;;;;;;;;5079820;28;20211;-68
2022/03/23 04:26:30;;;;;;;8.50;7.90;;;;;;;;;;5074235;28;20261;-69
2022/03/23 04:29:17;;;;;;;8.83;8.10;;;;;;;;;;5072228;28;20692;-67
2022/03/23 04:32:04;;;;;;;8.10;7.50;;;;;;;;;;5077797;28;20213;-68
2022/03/23 04:34:51;;;;;;;9.73;8.83;;;;;;;;;;5076227;28;20220;-68
2022/03/23 04:37:40;;;;;;;8.50;7.80;;;;;;;;;;5075230;28;20234;-68
2022/03/23 04:40:27;;;;;;;8.10;7.50;;;;;;;;;;5070015;28;20681;-68
2022/03/23 04:43:14;;;;;;;8.37;7.77;;;;;;;;;;5078862;28;20211;-68
2022/03/23 04:46:00;;;;;;;8.07;7.40;;;;;;;;;;5074684;28;20668;-68
2022/03/23 04:48:49;;;;;;;8.50;7.80;;;;;;;;;;5077449;28;20209;-68
2022/03/23 04:51:36;;;;;;;8.23;7.63;;;;;;;;;;5077525;28;20671;-68
2022/03/23 04:54:24;;;;;;;8.20;7.60;;;;;;;;;;5078139;28;20667;-68
2022/03/23 04:57:11;;;;;;;8.30;7.70;;;;;;;;;;5077032;28;20263;-69
2022/03/23 04:59:58;;;;;;;8.53;7.83;;;;;;;;;;5074716;28;20243;-68
2022/03/23 05:02:46;;;;;;;8.47;7.67;;;;;;;;;;5069621;28;20595;-69
2022/03/23 05:05:33;;;;;;;7.93;7.33;;;;;;;;;;5073541;28;20255;-68
2022/03/23 05:08:20;;;;;;;8.07;7.47;;;;;;;;;;5069841;28;20716;-68
2022/03/23 05:11:08;;;;;;;7.73;7.13;;;;;;;;;;5078704;28;20765;-68
2022/03/23 05:13:55;;;;;;;8.03;7.50;;;;;;;;;;5070366;28;20283;-68
2022/03/23 05:16:42;;;;;;;8.23;7.63;;;;;;;;;;5064987;28;20555;-68
2022/03/23 05:19:29;;;;;;;7.70;7.10;;;;;;;;;;5068640;28;20354;-68
2022/03/23 05:22:16;;;;;;;7.97;7.37;;;;;;;;;;5078728;28;20284;-68
2022/03/23 05:25:04;;;;;;;7.57;7.07;;;;;;;;;;5071684;28;20692;-68
2022/03/23 05:27:53;;;;;;;8.70;8.00;;;;;;;;;;5069578;28;20695;-68
2022/03/23 05:30:40;;;;;;;7.80;7.20;;;;;;;;;;5074897;28;20664;-68
2022/03/23 05:33:27;;;;;;;8.33;7.73;;;;;;;;;;5076177;28;20244;-68
2022/03/23 05:36:14;;;;;;;8.00;7.40;;;;;;;;;;5072803;28;20205;-68
2022/03/23 05:39:01;;;;;;;8.23;7.63;;;;;;;;;;5072544;28;20686;-68
2022/03/23 05:41:48;;;;;;;7.87;7.33;;;;;;;;;;5075548;28;20263;-68
2022/03/23 05:44:36;;;;;;;7.90;7.40;;;;;;;;;;5079629;28;20244;-68
2022/03/23 05:47:23;;;;;;;7.80;7.30;;;;;;;;;;5080552;28;20267;-69
2022/03/23 05:50:11;;;;;;;8.07;7.47;;;;;;;;;;5080875;28;20219;-68
2022/03/23 05:52:58;;;;;;;8.10;7.40;;;;;;;;;;5075301;28;20305;-66
2022/03/23 05:55:45;;;;;;;8.00;7.40;;;;;;;;;;5083927;28;20246;-68
2022/03/23 05:58:32;;;;;;;7.17;6.67;;;;;;;;;;5069747;28;20310;-68
2022/03/23 06:01:20;;;;;;;7.60;7.10;;;;;;;;;;5070171;28;20218;-67
2022/03/23 06:04:08;;;;;;;7.57;6.93;;;;;;;;;;5087292;28;20266;-68
2022/03/23 06:06:55;;;;;;;7.07;6.57;;;;;;;;;;5078501;28;20295;-67
2022/03/23 06:09:42;;;;;;;7.27;6.77;;;;;;;;;;5088633;28;20212;-68
2022/03/23 06:12:29;;;;;;;6.50;6.10;;;;;;;;;;5077985;28;20881;-68
2022/03/23 06:15:16;;;;;;;6.70;6.30;;;;;;;;;;5081164;28;20211;-67
2022/03/23 06:18:04;;;;;;;6.60;6.20;;;;;;;;;;5068440;28;20778;-68
2022/03/23 06:20:51;;;;;;;6.63;6.23;;;;;;;;;;5075808;28;21011;-68
2022/03/23 06:23:39;;;;;;;6.20;5.70;;;;;;;;;;5078404;28;20591;-67
2022/03/23 06:26:25;;;;;;;6.30;5.90;;;;;;;;;;5080053;28;20576;-68
2022/03/23 06:29:12;;;;;;;6.47;6.07;;;;;;;;;;5077334;28;20228;-68
2022/03/23 06:31:59;;;;;;;6.30;5.90;;;;;;;;;;5077974;28;20600;-68
2022/03/23 06:34:47;;;;;;;6.03;5.63;;;;;;;;;;5076262;28;20310;-67
2022/03/23 06:37:35;;;;;;;5.53;5.23;;;;;;;;;;5076134;28;20605;-67
2022/03/23 06:40:22;;;;;;;6.07;5.67;;;;;;;;;;4979203;28;20287;-69
2022/03/23 06:43:09;;;;;;;5.70;5.37;;;;;;;;;;4863928;28;20692;-69
2022/03/23 06:45:56;;;;;;;5.93;5.53;;;;;;;;;;4975566;28;20681;-67
2022/03/23 06:48:42;;;;;;;5.57;5.27;;;;;;;;;;5003217;28;20212;-67
2022/03/23 06:51:31;;;;;;;5.13;4.83;;;;;;;;;;5000078;28;20287;-68
2022/03/23 06:54:18;;;;;;;5.63;5.33;;;;;;;;;;5003643;28;20600;-67
2022/03/23 06:57:05;;;;;;;5.30;5.00;;;;;;;;;;5002883;28;20295;-73
2022/03/23 06:59:52;;;;;;;5.30;5.00;;;;;;;;;;5005712;28;20277;-68
2022/03/23 07:02:39;;;;;;;5.20;4.90;;;;;;;;;;5007853;28;20326;-68
2022/03/23 07:05:26;;;;;;;5.23;4.93;;;;;;;;;;5002991;28;20206;-68
2022/03/23 07:11:19;;;;;;;4.70;4.50;;;;;;;;;;5000832;28;20216;-67
2022/03/23 07:14:06;;;;;;;4.80;4.50;;;;;;;;;;5005169;28;20335;-69
2022/03/23 07:16:53;;;;;;;4.93;4.63;;;;;;;;;;5008655;28;20228;-68
2022/03/23 07:19:40;;;;;;;5.10;4.80;;;;;;;;;;5005309;28;20221;-67
2022/03/23 07:22:27;;;;;;;5.03;4.73;;;;;;;;;;5004815;28;20308;-67
2022/03/23 07:25:15;;;;;;;4.93;4.63;;;;;;;;;;5003941;28;21031;-67
2022/03/23 07:28:03;;;;;;;4.60;4.30;;;;;;;;;;5005884;28;20220;-67
2022/03/23 07:30:50;;;;;;;4.87;4.57;;;;;;;;;;5001876;28;20209;-67
2022/03/23 07:33:37;;;;;;;4.90;4.60;;;;;;;;;;5003484;28;20211;-67
2022/03/23 07:36:25;;;;;;;4.83;4.53;;;;;;;;;;5002467;28;20293;-67
2022/03/23 07:39:15;;;;;;;4.60;4.40;;;;;;;;;;5003262;28;20232;-67
2022/03/23 07:42:03;;;;;;;4.53;4.33;;;;;;;;;;5001397;28;20213;-67
2022/03/23 07:44:51;;;;;;;4.80;4.50;;;;;;;;;;5004308;28;20262;-67
2022/03/23 07:47:38;;;;;;;4.57;4.37;;;;;;;;;;5003452;28;20237;-67
2022/03/23 07:50:25;;;;;;;4.60;4.40;;;;;;;;;;5004224;28;20202;-67
2022/03/23 07:53:12;;;;;;;5.00;4.70;;;;;;;;;;5000908;28;20261;-67
2022/03/23 07:55:59;;;;;;;4.93;4.63;;;;;;;;;;5000313;28;20676;-67
2022/03/23 07:58:47;;;;;;;4.90;4.60;;;;;;;;;;5003804;28;20752;-67
2022/03/23 08:01:34;;;;;;;4.93;4.53;;;;;;;;;;5005386;28;20206;-68
2022/03/23 08:04:21;;;;;;;4.83;4.53;;;;;;;;;;5002422;28;20341;-67
2022/03/23 08:07:08;;;;;;;4.47;4.27;;;;;;;;;;4998327;28;20238;-67
2022/03/23 08:09:55;;;;;;;4.77;4.47;;;;;;;;;;5005133;28;20224;-68
2022/03/23 08:12:42;;;;;;;5.00;4.70;;;;;;;;;;5003365;28;20209;-66
2022/03/23 08:15:35;;;;;;;4.60;4.40;;;;;;;;;;5003378;28;20293;-67
2022/03/23 08:18:22;;;;;;;5.07;4.77;;;;;;;;;;5002754;28;20214;-67
2022/03/23 08:21:10;;;;;;;5.50;5.20;;;;;;;;;;5000045;28;20199;-67
2022/03/23 08:23:57;;;;;;;5.33;5.03;;;;;;;;;;5005026;28;20334;-67
2022/03/23 08:26:44;;;;;;;5.50;5.10;;;;;;;;;;5001397;28;20238;-68
2022/03/23 08:29:31;;;;;;;5.57;5.17;;;;;;;;;;5003908;28;20332;-67
2022/03/23 08:32:22;;;;;;;5.57;5.07;;;;;;;;;;5000677;28;20202;-67
2022/03/23 08:35:09;;;;;;;5.10;4.80;;;;;;;;;;5002728;28;20215;-67
2022/03/23 08:37:56;;;;;;;5.33;5.03;;;;;;;;;;5002840;28;20229;-67
2022/03/23 08:40:44;;;;;;;5.67;5.27;;;;;;;;;;5006147;28;20388;-67
2022/03/23 08:43:32;;;;;;;5.50;5.13;;;;;;;;;;5001344;28;20886;-67
2022/03/23 08:46:19;;;;;;;5.67;5.27;;;;;;;;;;5005453;28;20219;-67
2022/03/23 08:49:07;;;;;;;5.57;5.20;;;;;;;;;;5004826;28;20216;-67
2022/03/23 08:51:54;;;;;;;5.67;5.27;;;;;;;;;;5001810;28;20273;-67
2022/03/23 08:54:41;;;;;;;5.90;5.50;;;;;;;;;;4998057;28;20285;-67
2022/03/23 08:57:28;;;;;;;5.30;4.90;;;;;;;;;;5002280;28;20208;-69
2022/03/23 09:00:16;;;;;;;5.70;5.30;;;;;;;;;;4999162;28;20260;-67
2022/03/23 09:03:03;;;;;;;5.60;5.30;;;;;;;;;;5003385;28;20284;-68
2022/03/23 09:05:52;;;;;;;5.77;5.37;;;;;;;;;;5000902;28;20216;-67
2022/03/23 09:08:39;;;;;;;6.17;5.77;;;;;;;;;;5003465;28;20724;-67
2022/03/23 09:11:26;;;;;;;5.90;5.40;;;;;;;;;;5003253;28;20322;-67
2022/03/23 09:14:13;;;;;;;5.40;5.10;;;;;;;;;;5002503;28;20388;-69
2022/03/23 09:17:00;;;;;;;5.77;5.37;;;;;;;;;;5006713;28;20220;-68
2022/03/23 09:19:47;;;;;;;5.60;5.10;;;;;;;;;;5005055;28;20315;-67
2022/03/23 09:22:36;;;;;;;5.67;5.20;;;;;;;;;;5008314;28;20335;-67
2022/03/23 09:25:23;;;;;;;5.37;5.07;;;;;;;;;;5006019;28;20212;-67
2022/03/23 09:28:11;;;;;;;5.63;5.23;;;;;;;;;;5005641;28;20274;-68
2022/03/23 09:30:59;;;;;;;5.30;4.90;;;;;;;;;;5007711;28;20211;-67
2022/03/23 09:33:48;;;;;;;5.10;4.80;;;;;;;;;;5001818;28;20632;-67
2022/03/23 09:39:41;;;;;;;5.17;4.77;;;;;;;;;;5004280;28;20224;-68
2022/03/23 09:42:28;;;;;;;5.90;5.50;;;;;;;;;;5007049;28;20213;-67
2022/03/23 09:45:28;;;;;;;5.40;5.00;;;;;;;;;;5005541;28;20294;-67
2022/03/23 09:48:17;;;;;;;5.50;5.20;;;;;;;;;;5009502;28;20229;-67
2022/03/23 09:51:04;;;;;;;5.40;5.00;;;;;;;;;;5008158;28;20196;-68
2022/03/23 09:53:53;;;;;;;4.83;4.53;;;;;;;;;;5007551;28;20235;-68
2022/03/23 09:56:41;;;;;;;5.10;4.80;;;;;;;;;;5004973;28;20367;-68
2022/03/23 09:59:28;;;;;;;5.10;4.80;;;;;;;;;;5006930;28;20317;-68
2022/03/23 10:03:00;;;;;;;5.03;4.73;;;;;;;;;;5008396;28;20288;-67
2022/03/23 10:06:26;;;;;;;4.70;4.43;;;;;;;;;;5003391;28;20264;-68
2022/03/23 10:09:30;;;;;;;5.20;4.80;;;;;;;;;;5005130;28;20291;-68
2022/03/23 10:12:54;;;;;;;4.87;4.57;;;;;;;;;;5006288;28;20345;-67
2022/03/23 10:16:22;;;;;;;4.87;4.57;;;;;;;;;;5008289;28;20213;-67
2022/03/23 10:19:10;;;;;;;5.20;4.80;;;;;;;;;;5002906;28;20221;-67
2022/03/23 10:22:08;;;;;;;4.33;4.13;;;;;;;;;;5008710;28;20231;-67
2022/03/23 10:24:55;;;;;;;4.80;4.50;;;;;;;;;;5004897;28;20575;-67
2022/03/23 10:27:44;;;;;;;4.80;4.50;;;;;;;;;;5004380;28;20343;-67
2022/03/23 10:30:34;;;;;;;5.00;4.70;;;;;;;;;;5006499;28;20264;-67
2022/03/23 10:33:23;;;;;;;5.23;4.90;;;;;;;;;;5005106;28;20220;-67
2022/03/23 10:36:12;;;;;;;4.60;4.30;;;;;;;;;;4998943;28;20213;-67
2022/03/23 10:39:01;;;;;;;4.70;4.40;;;;;;;;;;5006709;28;20201;-67
2022/03/23 10:41:57;;;;;;;4.97;4.57;;;;;;;;;;5002162;28;20209;-67
2022/03/23 10:44:45;;;;;;;4.17;3.97;;;;;;;;;;5002755;28;20252;-68
2022/03/23 10:47:32;;;;;;;4.70;4.40;;;;;;;;;;5005975;28;20207;-67
2022/03/23 10:50:22;;;;;;;4.23;4.00;;;;;;;;;;5003096;28;20252;-67
2022/03/23 10:53:11;;;;;;;4.40;4.20;;;;;;;;;;5006260;28;20712;-68
2022/03/23 10:55:58;;;;;;;4.63;4.33;;;;;;;;;;5003932;28;20298;-67
2022/03/23 10:58:46;;;;;;;4.07;3.87;;;;;;;;;;5004751;28;20268;-67
2022/03/23 11:02:00;;;;;;;4.37;4.00;;;;;;;;;;5005947;28;20236;-67
2022/03/23 11:04:51;;;;;;;4.30;4.00;;;;;;;;;;5007789;28;20210;-67
2022/03/23 11:07:39;;;;;;;4.20;3.90;;;;;;;;;;5003747;28;20256;-67
2022/03/23 11:16:40;;;;;;;4.33;4.03;;;;;;;;;;5007156;28;20217;-66
2022/03/23 11:19:29;;;;;;;4.37;4.10;;;;;;;;;;5004077;28;20245;-67
2022/03/23 11:22:17;;;;;;;3.93;3.73;;;;;;;;;;5006196;28;20215;-67
2022/03/23 11:25:05;;;;;;;4.77;3.73;;;;;;;;;;5002536;28;20221;-67
2022/03/23 11:27:52;;;;;;;4.10;3.80;;;;;;;;;;5005608;28;20211;-66
2022/03/23 11:30:39;;;;;;;3.80;3.60;;;;;;;;;;5004219;28;20284;-67
2022/03/23 11:33:27;;;;;;;4.40;4.00;;;;;;;;;;5001977;28;20292;-67
2022/03/23 11:36:16;;;;;;;3.93;3.63;;;;;;;;;;5000424;28;21055;-68
2022/03/23 11:39:04;;;;;;;4.03;3.73;;;;;;;;;;5004805;28;20259;-68
2022/03/23 11:41:53;;;;;;;4.53;4.13;;;;;;;;;;4996933;28;20213;-67
2022/03/23 11:44:40;;;;;;;4.10;3.80;;;;;;;;;;5001863;28;20241;-66
2022/03/23 11:47:36;;;;;;;3.60;3.40;;;;;;;;;;4998901;28;20334;-66
2022/03/23 11:50:28;;;;;;;3.60;3.40;;;;;;;;;;5003260;28;20312;-67
2022/03/23 11:53:27;;;;;;;3.50;3.30;;;;;;;;;;5004277;28;20254;-67
2022/03/23 11:56:22;;;;;;;4.03;3.80;;;;;;;;;;5004494;28;20330;-67
2022/03/23 11:59:20;;;;;;;3.43;3.13;;;;;;;;;;5006016;28;20264;-67
2022/03/23 12:02:09;;;;;;;3.73;3.53;;;;;;;;;;5005460;28;20207;-67
2022/03/23 12:05:23;;;;;;;3.83;3.57;;;;;;;;;;5004006;28;20620;-67
2022/03/23 12:08:10;;;;;;;3.97;3.77;;;;;;;;;;5002537;28;20269;-67
2022/03/23 12:10:58;;;;;;;3.60;3.40;;;;;;;;;;5008648;28;20262;-67
2022/03/23 12:13:56;;;;;;;3.40;3.20;;;;;;;;;;5004226;28;20707;-67
2022/03/23 12:17:11;;;;;;;3.50;3.30;;;;;;;;;;5004054;28;20306;-67
2022/03/23 12:20:10;;;;;;;3.23;3.03;;;;;;;;;;5003074;28;20314;-68
2022/03/23 12:23:11;;;;;;;3.10;3.00;;;;;;;;;;4999268;28;20207;-68
2022/03/23 12:26:08;;;;;;;3.40;3.20;;;;;;;;;;5003899;28;20210;-67
2022/03/23 12:29:03;;;;;;;3.03;2.93;;;;;;;;;;4996793;28;20238;-67
2022/03/23 12:31:50;;;;;;;3.00;2.90;;;;;;;;;;5002762;28;20210;-67
2022/03/23 12:34:38;;;;;;;3.30;3.13;;;;;;;;;;5001886;28;20206;-67
2022/03/23 12:37:38;;;;;;;3.20;3.10;;;;;;;;;;4999731;28;20248;-68
2022/03/23 12:40:37;;;;;;;3.00;2.90;;;;;;;;;;5003610;28;20267;-68
2022/03/23 12:43:37;;;;;;;3.20;3.00;;;;;;;;;;5001118;28;20227;-67
2022/03/23 12:46:27;;;;;;;3.20;3.00;;;;;;;;;;5004773;28;20235;-67
2022/03/23 12:58:31;;;;;;;3.33;3.13;;;;;;;;;;5002461;28;20211;-67
2022/03/23 13:01:21;;;;;;;3.23;3.03;;;;;;;;;;4999960;28;20271;-67
2022/03/23 13:04:08;;;;;;;3.20;3.10;;;;;;;;;;4999734;28;20296;-67
2022/03/23 13:06:55;;;;;;;3.40;3.20;;;;;;;;;;5001499;28;20226;-68
2022/03/23 13:09:42;;;;;;;3.57;3.30;;;;;;;;;;5001912;28;20283;-67
2022/03/23 13:12:31;;;;;;;3.40;3.23;;;;;;;;;;4999251;28;20217;-67
2022/03/23 13:15:21;;;;;;;3.40;3.20;;;;;;;;;;5003451;28;20693;-66
2022/03/23 13:18:09;;;;;;;3.23;3.03;;;;;;;;;;5000629;28;20675;-67
2022/03/23 13:20:57;;;;;;;3.53;3.33;;;;;;;;;;5004087;28;20287;-67
2022/03/23 13:23:45;;;;;;;3.37;3.17;;;;;;;;;;4999444;28;20295;-67
2022/03/23 13:26:34;;;;;;;3.50;3.30;;;;;;;;;;5003280;28;20296;-68
2022/03/23 13:29:24;;;;;;;3.20;3.10;;;;;;;;;;4999076;28;20209;-67
2022/03/23 13:32:11;;;;;;;2.97;2.87;;;;;;;;;;4999034;28;20207;-67
2022/03/23 13:35:00;;;;;;;3.50;3.30;;;;;;;;;;5002200;28;20213;-67
2022/03/23 13:37:55;;;;;;;3.20;3.10;;;;;;;;;;5005191;28;20279;-67
2022/03/23 13:43:54;;;;;;;3.30;3.10;;;;;;;;;;4959601;28;20369;-67
2022/03/23 13:46:43;;;;;;;3.07;2.97;;;;;;;;;;5002274;28;20208;-67
2022/03/23 13:49:30;;;;;;;3.47;3.27;;;;;;;;;;5001945;28;20205;-67
2022/03/23 13:52:19;;;;;;;3.57;3.37;;;;;;;;;;5001360;28;20231;-67
2022/03/23 13:55:09;;;;;;;3.03;2.93;;;;;;;;;;5000870;28;20354;-67
2022/03/23 13:57:56;;;;;;;3.67;3.40;;;;;;;;;;5002658;28;20209;-67
2022/03/23 14:00:44;;;;;;;3.73;3.53;;;;;;;;;;5004767;28;20263;-67
2022/03/23 14:03:35;;;;;;;3.40;3.20;;;;;;;;;;5005604;28;20341;-67
2022/03/23 14:06:22;;;;;;;3.87;3.60;;;;;;;;;;5004447;28;20213;-67
2022/03/23 14:09:11;;;;;;;3.60;3.40;;;;;;;;;;5006646;28;20289;-67
2022/03/23 14:12:03;;;;;;;3.20;3.00;;;;;;;;;;5003199;28;20208;-67
2022/03/23 14:14:50;;;;;;;3.43;3.23;;;;;;;;;;5001423;28;20586;-67
2022/03/23 14:17:37;;;;;;;3.40;3.20;;;;;;;;;;5003804;28;20604;-67
2022/03/23 14:20:25;;;;;;;3.67;3.47;;;;;;;;;;5005728;28;20227;-71
2022/03/23 14:23:12;;;;;;;3.30;3.10;;;;;;;;;;5001487;28;20211;-68
2022/03/23 14:26:27;;;;;;;3.60;3.37;;;;;;;;;;5002223;28;20211;-68
2022/03/23 14:29:21;;;;;;;3.60;3.40;;;;;;;;;;5005933;28;20257;-67
2022/03/23 14:32:11;;;;;;;3.47;3.27;;;;;;;;;;5005181;28;20218;-67
2022/03/23 14:34:58;;;;;;;3.13;3.00;;;;;;;;;;5003259;28;20207;-67
2022/03/23 14:37:47;;;;;;;3.50;3.30;;;;;;;;;;5000974;28;20280;-68
2022/03/23 14:40:36;;;;;;;3.43;3.23;;;;;;;;;;5009588;28;20299;-68
2022/03/23 14:43:33;;;;;;;3.00;2.90;;;;;;;;;;5005831;28;20206;-67
2022/03/23 14:46:22;;;;;;;3.50;3.30;;;;;;;;;;5006039;28;20286;-67
2022/03/23 14:49:11;;;;;;;3.30;3.10;;;;;;;;;;5005354;28;20202;-67
2022/03/23 14:51:58;;;;;;;3.50;3.30;;;;;;;;;;5002292;28;20226;-67
2022/03/23 14:54:45;;;;;;;3.40;3.20;;;;;;;;;;5005326;28;20237;-67
2022/03/23 14:57:32;;;;;;;3.63;3.43;;;;;;;;;;5001406;28;20304;-67
2022/03/23 15:00:20;;;;;;;3.43;3.17;;;;;;;;;;5002557;28;20554;-67
2022/03/23 15:03:08;;;;;;;3.70;3.40;;;;;;;;;;5003339;28;20299;-67
2022/03/23 15:15:10;;;;;;;3.20;3.00;;;;;;;;;;4999895;28;20210;-67
2022/03/23 15:17:58;;;;;;;3.60;3.23;;;;;;;;;;5006065;28;20197;-67
2022/03/23 15:20:47;;;;;;;3.47;3.27;;;;;;;;;;5003501;28;20291;-73
2022/03/23 15:23:34;;;;;;;3.40;3.20;;;;;;;;;;5002673;28;20209;-68
2022/03/23 15:26:23;;;;;;;3.43;3.23;;;;;;;;;;5001695;28;20301;-67
2022/03/23 15:29:10;;;;;;;3.10;3.00;;;;;;;;;;5006324;28;20217;-67
2022/03/23 15:31:58;;;;;;;3.50;3.30;;;;;;;;;;4995116;28;20310;-67
2022/03/23 15:34:46;;;;;;;3.20;3.10;;;;;;;;;;5004503;28;20299;-67
2022/03/23 15:37:33;;;;;;;3.30;3.10;;;;;;;;;;5002710;28;20198;-67
2022/03/23 15:40:20;;;;;;;3.27;3.07;;;;;;;;;;5000259;28;20201;-67
2022/03/23 15:43:08;;;;;;;3.30;3.10;;;;;;;;;;5000633;28;20252;-67
2022/03/23 15:45:57;;;;;;;3.60;3.40;;;;;;;;;;5003474;28;20263;-68
2022/03/23 15:48:45;;;;;;;3.40;3.20;;;;;;;;;;4999989;28;20706;-67
2022/03/23 15:51:34;;;;;;;3.30;3.10;;;;;;;;;;5009481;28;20287;-67
2022/03/23 15:54:21;;;;;;;2.97;2.87;;;;;;;;;;5002527;28;20211;-67
2022/03/23 15:57:08;;;;;;;3.33;3.13;;;;;;;;;;5004086;28;20199;-67
2022/03/23 15:59:55;;;;;;;3.50;3.30;;;;;;;;;;4998257;28;20315;-69
2022/03/23 16:02:42;;;;;;;3.20;3.00;;;;;;;;;;5004910;28;20282;-80
2022/03/23 16:05:29;;;;;;;3.40;3.10;;;;;;;;;;5000057;28;20234;-68
2022/03/23 16:08:17;;;;;;;3.20;3.00;;;;;;;;;;4999933;28;20329;-68
2022/03/23 16:11:05;;;;;;;3.50;3.30;;;;;;;;;;5004464;28;20666;-67
2022/03/23 16:13:54;;;;;;;3.17;2.97;;;;;;;;;;4998525;28;20613;-67
2022/03/23 16:16:41;;;;;;;3.60;3.30;;;;;;;;;;5002369;28;20291;-68
2022/03/23 16:19:28;;;;;;;3.40;3.20;;;;;;;;;;5001023;28;20208;-67
2022/03/23 16:22:15;;;;;;;3.33;3.13;;;;;;;;;;5003933;28;20241;-68
2022/03/23 16:25:04;;;;;;;3.13;2.93;;;;;;;;;;4998307;28;20744;-67
2022/03/23 16:27:52;;;;;;;3.30;3.10;;;;;;;;;;5004995;28;20684;-68
2022/03/23 16:30:39;;;;;;;3.10;2.90;;;;;;;;;;4999161;28;20210;-67
2022/03/23 16:33:26;;;;;;;3.43;3.13;;;;;;;;;;4998889;28;20203;-67
2022/03/23 16:36:15;;;;;;;3.40;3.20;;;;;;;;;;4999448;28;20844;-67
2022/03/23 16:39:02;;;;;;;3.07;2.87;;;;;;;;;;4998503;28;20212;-67
2022/03/23 16:41:50;;;;;;;2.93;2.83;;;;;;;;;;5002168;28;20635;-68
2022/03/23 16:44:37;;;;;;;3.33;3.13;;;;;;;;;;4999749;28;20358;-72
2022/03/23 16:47:24;;;;;;;3.57;3.37;;;;;;;;;;4997767;28;20215;-68
2022/03/23 16:50:15;;;;;;;3.67;3.30;;;;;;;;;;5001160;28;20347;-67
2022/03/23 16:53:03;;;;;;;3.80;3.50;;;;;;;;;;4998337;28;20692;-67
2022/03/23 16:55:52;;;;;;;3.43;3.23;;;;;;;;;;5002670;28;20203;-67
2022/03/23 16:58:40;;;;;;;3.40;3.10;;;;;;;;;;5002763;28;20290;-67
2022/03/23 17:01:27;;;;;;;4.10;3.80;;;;;;;;;;5004320;28;20319;-67
2022/03/23 17:13:27;;;;;;;3.73;3.47;;;;;;;;;;5002268;28;20216;-67
2022/03/23 17:16:16;;;;;;;3.40;3.20;;;;;;;;;;4999833;28;20238;-67
2022/03/23 17:19:05;;;;;;;3.30;3.10;;;;;;;;;;5003025;28;20271;-68
2022/03/23 17:21:52;;;;;;;3.30;3.10;;;;;;;;;;4997113;28;20232;-67
2022/03/23 17:24:39;;;;;;;3.30;3.10;;;;;;;;;;4996710;28;20200;-67
2022/03/23 17:27:28;;;;;;;3.53;3.33;;;;;;;;;;4998896;28;20289;-67
2022/03/23 17:30:17;;;;;;;3.43;3.13;;;;;;;;;;5006004;28;20615;-67
2022/03/23 17:33:05;;;;;;;3.40;3.10;;;;;;;;;;5001169;28;20642;-67
2022/03/23 17:35:52;;;;;;;3.40;3.10;;;;;;;;;;5005330;28;20901;-67
2022/03/23 17:38:39;;;;;;;3.30;3.10;;;;;;;;;;5005747;28;20240;-67
2022/03/23 17:41:27;;;;;;;3.40;3.20;;;;;;;;;;5003487;28;20233;-67
2022/03/23 17:44:19;;;;;;;3.47;3.20;;;;;;;;;;5007502;28;20328;-66
2022/03/23 17:47:07;;;;;;;3.07;2.97;;;;;;;;;;5002365;28;20230;-67